This is the latest recevied weather packets stored in our database for station/object DG4MJS-10. If no packets are shown the sender has not sent any weather packets the latest 10 day(s).
| Time | Temp. | Humidity | Pressure | Rain* | Wind** | Luminosity | Snow |
|---|---|---|---|---|---|---|---|
| 1787866170 | 22.22° C | 76% | 1012.6 hPa | - | - | - | - |
| 1787865270 | 22.22° C | 76% | 1012.5 hPa | - | - | - | - |
| 1787864370 | 22.22° C | 76% | 1012.4 hPa | - | - | - | - |
| 1787863470 | 22.22° C | 76% | 1012.6 hPa | - | - | - | - |
| 1787862570 | 22.22° C | 76% | 1012.7 hPa | - | - | - | - |
| 1787861670 | 22.22° C | 76% | 1012.9 hPa | - | - | - | - |
| 1787860770 | 22.22° C | 76% | 1013 hPa | - | - | - | - |
| 1787859870 | 22.22° C | 76% | 1013.2 hPa | - | - | - | - |
| 1787858970 | 22.22° C | 75% | 1013.3 hPa | - | - | - | - |
| 1787858069 | 22.22° C | 75% | 1013.1 hPa | - | - | - | - |
| 1787857169 | 22.22° C | 75% | 1013.1 hPa | - | - | - | - |
| 1787856269 | 22.22° C | 75% | 1013 hPa | - | - | - | - |
| 1787855369 | 22.22° C | 75% | 1012.9 hPa | - | - | - | - |
| 1787854469 | 22.78° C | 75% | 1013.1 hPa | - | - | - | - |
| 1787853569 | 22.78° C | 74% | 1012.8 hPa | - | - | - | - |
| 1787852668 | 22.78° C | 74% | 1012.9 hPa | - | - | - | - |
| 1787851768 | 22.78° C | 74% | 1012.9 hPa | - | - | - | - |
| 1787850868 | 23.33° C | 72% | 1012.8 hPa | - | - | - | - |
| 1787849967 | 23.89° C | 63% | 1012.9 hPa | - | - | - | - |
| 1787849067 | 23.89° C | 65% | 1012.6 hPa | - | - | - | - |
| 1787848167 | 24.44° C | 62% | 1012.6 hPa | - | - | - | - |
| 1787847268 | 25° C | 60% | 1012.8 hPa | - | - | - | - |
| 1787846368 | 23.33° C | 78% | 1013.1 hPa | - | - | - | - |
| 1787845468 | 22.78° C | 79% | 1013.1 hPa | - | - | - | - |
| 1787844568 | 22.78° C | 75% | 1013.2 hPa | - | - | - | - |
* Rain since midnight (hover to see other rain measurements)
** Current wind speed in m/s (hover to see current wind gust speed)